Bischofshofen, Austria
Current Conditions -  °F | °C
As of 10:20 PM on Saturday 22 Nov 2014 (Local Time) from LOWS Reporting Station
Few Clouds Few Clouds  
Wind Chill: 37°   Ceiling: Unl
Heat Index: 37°   Visibility: 4mi
Dew Point: 37°   Wind: 3mph
Humidity: 100%   Direction: 310°NW
Pressure: 30.21"   Gusts: NA
Location:  47.42°N, 13.21°E
Report Text: LOWS 222120Z 31003KT 6000 FEW005 03/03 Q1023 TEMPO 4000 BR
Loading
Personal Weather Stations






























Interactive Weather Map New forecast layout! Learn more

10-Day Weather Forecast

Advertisements
Track Severe Weather on mobile